Time,TemperatureF,DewpointF,PressureIn,WindDirection,WindDirectionDegrees,WindSpeedMPH,WindSpeedGustMPH,Humidity,HourlyPrecipIn,Conditions,Clouds,dailyrainin,SoftwareType,DateUTC
2013-03-19 00:03:00,41.0,39.0,29.67,SW,222,1.0,4.0,94,-99.99,,,-99.99,,2013-03-19 04:03:00,
2013-03-19 00:13:00,41.0,39.0,29.67,SW,222,1.0,4.0,94,-99.99,,,-99.99,,2013-03-19 04:13:00,
2013-03-19 00:23:00,41.0,39.0,29.67,SE,128,0.0,1.0,93,-99.99,,,-99.99,,2013-03-19 04:23:00,
2013-03-19 00:33:00,41.0,39.0,29.67,SSW,210,1.0,4.0,94,-99.99,,,-99.99,,2013-03-19 04:33:00,
2013-03-19 00:43:00,41.0,39.0,29.67,SSW,210,1.0,4.0,94,-99.99,,,-99.99,,2013-03-19 04:43:00,
2013-03-19 00:53:00,40.0,39.0,29.67,SW,215,2.0,3.0,95,-99.99,,,-99.99,,2013-03-19 04:53:00,
2013-03-19 01:02:00,40.0,39.0,29.67,SSW,208,1.0,4.0,96,-99.99,,,-99.99,,2013-03-19 05:02:00,
2013-03-19 01:12:00,40.0,39.0,29.67,SSW,208,1.0,4.0,96,-99.99,,,-99.99,,2013-03-19 05:12:00,
2013-03-19 01:22:00,40.0,39.0,29.67,SSE,166,2.0,7.0,97,-99.99,,,-99.99,,2013-03-19 05:22:00,
2013-03-19 01:32:00,41.0,40.0,29.67,SSW,197,5.0,13.0,97,-99.99,,,-99.99,,2013-03-19 05:32:00,
2013-03-19 01:43:00,41.0,40.0,29.67,SSW,197,5.0,13.0,97,-99.99,,,-99.99,,2013-03-19 05:43:00,
2013-03-19 01:52:00,41.0,40.0,29.67,West,270,2.0,5.0,97,-99.99,,,-99.99,,2013-03-19 05:52:00,
2013-03-19 02:02:00,41.0,40.0,29.67,North,0,0.0,0.0,98,-99.99,,,-99.99,,2013-03-19 06:02:00,
2013-03-19 02:12:00,41.0,40.0,29.67,North,0,0.0,0.0,98,-99.99,,,-99.99,,2013-03-19 06:12:00,
2013-03-19 02:22:00,41.0,40.0,29.67,North,0,0.0,0.0,98,-99.99,,,-99.99,,2013-03-19 06:22:00,
2013-03-19 02:32:00,41.0,40.0,29.68,West,264,3.0,9.0,98,-99.99,,,-99.99,,2013-03-19 06:32:00,
2013-03-19 02:42:00,41.0,40.0,29.68,West,264,3.0,9.0,98,-99.99,,,-99.99,,2013-03-19 06:42:00,
2013-03-19 02:52:00,42.0,41.0,29.69,WSW,253,6.0,12.0,98,-99.99,,,-99.99,,2013-03-19 06:52:00,
2013-03-19 03:02:00,43.0,42.0,29.69,WNW,284,8.0,17.0,98,-99.99,,,-99.99,,2013-03-19 07:02:00,
2013-03-19 03:12:00,43.0,42.0,29.69,WNW,284,8.0,17.0,98,-99.99,,,-99.99,,2013-03-19 07:12:00,
2013-03-19 03:22:00,43.0,42.0,29.70,WNW,284,7.0,15.0,96,-99.99,,,-99.99,,2013-03-19 07:22:00,
2013-03-19 03:32:00,42.0,41.0,29.70,West,270,3.0,10.0,96,-99.99,,,-99.99,,2013-03-19 07:32:00,
2013-03-19 03:42:00,42.0,41.0,29.70,West,270,3.0,10.0,96,-99.99,,,-99.99,,2013-03-19 07:42:00,
2013-03-19 03:53:00,42.0,41.0,29.70,WNW,285,4.0,12.0,96,-99.99,,,-99.99,,2013-03-19 07:53:00,
2013-03-19 04:03:00,42.0,41.0,29.71,West,277,3.0,9.0,96,-99.99,,,-99.99,,2013-03-19 08:03:00,
2013-03-19 04:12:00,42.0,41.0,29.71,West,277,3.0,9.0,96,-99.99,,,-99.99,,2013-03-19 08:12:00,
2013-03-19 04:22:00,41.0,40.0,29.72,WNW,293,4.0,11.0,96,-99.99,,,-99.99,,2013-03-19 08:22:00,
2013-03-19 04:32:00,40.0,39.0,29.73,WSW,250,6.0,15.0,96,-99.99,,,-99.99,,2013-03-19 08:32:00,
2013-03-19 04:42:00,40.0,39.0,29.73,WSW,250,6.0,15.0,96,-99.99,,,-99.99,,2013-03-19 08:42:00,
2013-03-19 04:52:00,39.0,38.0,29.74,NNW,346,3.0,9.0,96,-99.99,,,-99.99,,2013-03-19 08:52:00,
2013-03-19 05:02:00,38.0,37.0,29.75,NW,326,3.0,10.0,96,-99.99,,,-99.99,,2013-03-19 09:02:00,
2013-03-19 05:12:00,38.0,37.0,29.75,NW,326,3.0,10.0,96,-99.99,,,-99.99,,2013-03-19 09:12:00,
2013-03-19 05:22:00,38.0,37.0,29.75,NNE,27,1.0,7.0,96,-99.99,,,-99.99,,2013-03-19 09:22:00,
2013-03-19 05:32:00,38.0,37.0,29.76,NNW,347,3.0,7.0,96,-99.99,,,-99.99,,2013-03-19 09:32:00,
2013-03-19 05:43:00,38.0,37.0,29.76,NNW,347,3.0,7.0,96,-99.99,,,-99.99,,2013-03-19 09:43:00,
2013-03-19 05:53:00,38.0,37.0,29.77,WNW,300,4.0,10.0,95,-99.99,,,-99.99,,2013-03-19 09:53:00,
2013-03-19 06:03:00,38.0,36.0,29.78,West,278,4.0,12.0,92,-99.99,,,-99.99,,2013-03-19 10:03:00,
2013-03-19 06:13:00,38.0,36.0,29.78,West,278,4.0,12.0,92,-99.99,,,-99.99,,2013-03-19 10:13:00,
2013-03-19 06:23:00,38.0,36.0,29.78,NW,325,3.0,8.0,92,-99.99,,,-99.99,,2013-03-19 10:23:00,
2013-03-19 06:32:00,38.0,36.0,29.78,WNW,287,4.0,8.0,91,-99.99,,,-99.99,,2013-03-19 10:32:00,
2013-03-19 06:42:00,38.0,36.0,29.78,WNW,287,4.0,8.0,91,-99.99,,,-99.99,,2013-03-19 10:42:00,
2013-03-19 06:52:00,38.0,36.0,29.79,West,271,5.0,9.0,92,-99.99,,,-99.99,,2013-03-19 10:52:00,
2013-03-19 07:03:00,37.0,35.0,29.79,WNW,283,6.0,13.0,91,-99.99,,,-99.99,,2013-03-19 11:03:00,
2013-03-19 07:12:00,37.0,35.0,29.79,WNW,283,6.0,13.0,91,-99.99,,,-99.99,,2013-03-19 11:12:00,
2013-03-19 07:22:00,37.0,35.0,29.80,WSW,243,4.0,8.0,91,-99.99,,,-99.99,,2013-03-19 11:22:00,
2013-03-19 07:33:00,37.0,34.0,29.80,West,260,4.0,12.0,90,-99.99,,,-99.99,,2013-03-19 11:33:00,
2013-03-19 07:43:00,37.0,34.0,29.80,West,260,4.0,12.0,90,-99.99,,,-99.99,,2013-03-19 11:43:00,
2013-03-19 07:53:00,36.0,34.0,29.79,WSW,245,2.0,5.0,91,-99.99,,,-99.99,,2013-03-19 11:53:00,
2013-03-19 08:02:00,36.0,34.0,29.79,South,188,4.0,6.0,91,-99.99,,,-99.99,,2013-03-19 12:02:00,
2013-03-19 08:12:00,36.0,34.0,29.79,WSW,243,4.0,9.0,91,-99.99,,,-99.99,,2013-03-19 12:12:00,
2013-03-19 08:22:00,36.0,34.0,29.79,WSW,243,4.0,9.0,91,-99.99,,,-99.99,,2013-03-19 12:22:00,
2013-03-19 08:33:00,37.0,34.0,29.78,SSW,211,6.0,15.0,88,-99.99,,,-99.99,,2013-03-19 12:33:00,
2013-03-19 08:42:00,37.0,34.0,29.78,SSW,211,6.0,15.0,88,-99.99,,,-99.99,,2013-03-19 12:42:00,
2013-03-19 08:52:00,37.0,34.0,29.78,WSW,253,6.0,11.0,87,-99.99,,,-99.99,,2013-03-19 12:52:00,
2013-03-19 09:02:00,38.0,33.0,29.78,SW,232,8.0,16.0,82,-99.99,,,-99.99,,2013-03-19 13:02:00,
2013-03-19 09:12:00,38.0,33.0,29.78,SW,232,8.0,16.0,82,-99.99,,,-99.99,,2013-03-19 13:12:00,
2013-03-19 09:22:00,38.0,33.0,29.77,West,276,6.0,11.0,82,-99.99,,,-99.99,,2013-03-19 13:22:00,
2013-03-19 09:33:00,39.0,34.0,29.77,WSW,246,6.0,13.0,81,-99.99,,,-99.99,,2013-03-19 13:33:00,
2013-03-19 09:42:00,39.0,34.0,29.77,WSW,246,6.0,13.0,81,-99.99,,,-99.99,,2013-03-19 13:42:00,
2013-03-19 09:53:00,39.0,33.0,29.76,WSW,257,7.0,23.0,80,-99.99,,,-99.99,,2013-03-19 13:53:00,
2013-03-19 10:02:00,40.0,33.0,29.76,West,276,10.0,22.0,75,-99.99,,,-99.99,,2013-03-19 14:02:00,
2013-03-19 10:12:00,40.0,33.0,29.76,West,276,10.0,22.0,75,-99.99,,,-99.99,,2013-03-19 14:12:00,
2013-03-19 10:22:00,40.0,33.0,29.76,West,267,8.0,23.0,77,-99.99,,,-99.99,,2013-03-19 14:22:00,
2013-03-19 10:32:00,40.0,33.0,29.76,West,269,10.0,27.0,76,-99.99,,,-99.99,,2013-03-19 14:32:00,
2013-03-19 10:42:00,40.0,33.0,29.76,West,269,10.0,27.0,76,-99.99,,,-99.99,,2013-03-19 14:42:00,
2013-03-19 10:52:00,40.0,33.0,29.76,WNW,283,9.0,25.0,76,-99.99,,,-99.99,,2013-03-19 14:52:00,
2013-03-19 11:02:00,42.0,36.0,29.75,West,278,7.0,15.0,78,-99.99,,,-99.99,,2013-03-19 15:02:00,
2013-03-19 11:12:00,42.0,36.0,29.75,West,278,7.0,15.0,78,-99.99,,,-99.99,,2013-03-19 15:12:00,
2013-03-19 11:22:00,43.0,36.0,29.75,WSW,243,10.0,17.0,76,-99.99,,,-99.99,,2013-03-19 15:22:00,
2013-03-19 11:34:00,44.0,36.0,29.74,West,281,6.0,17.0,74,-99.99,,,-99.99,,2013-03-19 15:34:00,
2013-03-19 11:43:00,44.0,36.0,29.74,West,281,6.0,17.0,74,-99.99,,,-99.99,,2013-03-19 15:43:00,
2013-03-19 11:53:00,44.0,34.0,29.74,SW,229,10.0,22.0,67,-99.99,,,-99.99,,2013-03-19 15:53:00,
2013-03-19 12:04:00,44.0,34.0,29.74,SW,229,10.0,22.0,67,-99.99,,,-99.99,,2013-03-19 16:04:00,
2013-03-19 12:13:00,44.0,34.0,29.74,SW,229,10.0,22.0,67,-99.99,,,-99.99,,2013-03-19 16:13:00,
2013-03-19 12:24:00,44.0,34.0,29.74,SW,229,10.0,22.0,67,-99.99,,,-99.99,,2013-03-19 16:24:00,
2013-03-19 18:34:00,36.0,27.0,29.88,WNW,285,8.0,17.0,69,-99.99,,,-99.99,,2013-03-19 22:34:00,
2013-03-19 18:44:00,36.0,27.0,29.88,WNW,285,8.0,17.0,69,-99.99,,,-99.99,,2013-03-19 22:44:00,
2013-03-19 18:54:00,36.0,27.0,29.88,WNW,285,8.0,17.0,69,-99.99,,,-99.99,,2013-03-19 22:54:00,
2013-03-19 19:02:00,35.0,26.0,29.88,West,281,6.0,18.0,70,-99.99,,,-99.99,,2013-03-19 23:02:00,
2013-03-19 19:03:00,36.0,27.0,29.88,WNW,285,8.0,17.0,69,-99.99,,,-99.99,,2013-03-19 23:03:00,
2013-03-19 19:12:00,35.0,26.0,29.88,West,281,6.0,18.0,70,-99.99,,,-99.99,,2013-03-19 23:12:00,
2013-03-19 19:22:00,35.0,26.0,29.88,West,281,6.0,18.0,70,-99.99,,,-99.99,,2013-03-19 23:22:00,
2013-03-19 19:33:00,35.0,26.0,29.88,West,281,6.0,18.0,70,-99.99,,,-99.99,,2013-03-19 23:33:00,
2013-03-19 19:43:00,35.0,26.0,29.88,West,281,6.0,18.0,70,-99.99,,,-99.99,,2013-03-19 23:43:00,
2013-03-19 19:53:00,35.0,26.0,29.88,West,281,6.0,18.0,70,-99.99,,,-99.99,,2013-03-19 23:53:00,
2013-03-19 22:32:00,31.0,22.0,29.94,NW,319,4.0,10.0,68,-99.99,,,-99.99,,2013-03-20 02:32:00,
2013-03-19 22:43:00,31.0,22.0,29.94,NW,319,4.0,10.0,68,-99.99,,,-99.99,,2013-03-20 02:43:00,
2013-03-19 22:53:00,31.0,22.0,29.94,NW,319,4.0,10.0,68,-99.99,,,-99.99,,2013-03-20 02:53:00,
2013-03-19 23:02:00,31.0,22.0,29.95,West,259,6.0,22.0,70,-99.99,,,-99.99,,2013-03-20 03:02:00,
2013-03-19 23:12:00,31.0,22.0,29.95,NW,314,5.0,13.0,70,-99.99,,,-99.99,,2013-03-20 03:12:00,
2013-03-19 23:22:00,31.0,22.0,29.95,NW,314,5.0,13.0,70,-99.99,,,-99.99,,2013-03-20 03:22:00,
2013-03-19 23:34:00,31.0,23.0,29.95,West,263,4.0,8.0,71,-99.99,,,-99.99,,2013-03-20 03:34:00,
2013-03-19 23:42:00,31.0,23.0,29.95,West,263,4.0,8.0,71,-99.99,,,-99.99,,2013-03-20 03:42:00,
2013-03-19 23:53:00,31.0,23.0,29.95,WSW,252,4.0,11.0,71,-99.99,,,-99.99,,2013-03-20 03:53:00,